Jim Hamilton L.B. Owens Airport Columbia US
ICAO: KCUB
IATA: CUB
Category: Medium
Scheduled Services: No

Elevation: 193 ft
TransAlt. 18000 ft.

Airport Communications:
APP/DEP:133.4
ASOS:119.675
CLNC DEL:124.4
MIL OPS:122.8
ANDERSON RDO:114.7
CTAF/UNICOM:122.8

KCUB Zoom In..

Runways:

(A) RW 13 length 5011 ft width 75 ft
LOC 110.90 / hdg 131

(B) RW 31 length 5011 ft width 75 ft
LOC 110.90 / hdg 311

Location; KCUB
Day. 07 / Time. 18.53 Zulu
* Altimeter: 29.95
* Temperature: 29° c. 84.2°f.
* Wind from: 280° Speed 07 kn.
Dewpoint: 13° c.
Visibility: 10 Statute Miles.
Clouds: Few 7000 ft.
Clouds: Scattered 9500 ft.

KCUB 071853Z AUTO 28007KT 10SM FEW070 SCT095 29/13 A2995 RMK AO2 SLP138 T02890128


Wind From 280°
Speed 07 kn.

 
 
jpsmedia worldairports.se 2020   terms of use